Time;durP1;ratioP1;P1;durP2;ratioP2;P2;SDS_P1;SDS_P2;PMS_P1;PMS_P2;Temp;Humidity;BMP_temperature;BMP_pressure;BME280_temperature;BME280_humidity;BME280_pressure;Samples;Min_cycle;Max_cycle;Signal;HPM_P1;HPM_P2
2022/04/16 00:01:37;;;;;;;27.77;20.33;;;19.30;67.80;;;;;;5032757;28;20018;-68
2022/04/16 00:04:03;;;;;;;26.63;19.60;;;19.20;67.80;;;;;;5032784;28;20025;-68
2022/04/16 00:06:28;;;;;;;25.35;19.35;;;19.30;67.80;;;;;;5032427;28;20017;-67
2022/04/16 00:08:54;;;;;;;27.83;20.15;;;19.20;67.80;;;;;;5032507;28;20064;-67
2022/04/16 00:11:20;;;;;;;25.80;19.13;;;19.30;67.90;;;;;;5033468;28;20030;-67
2022/04/16 00:13:50;;;;;;;25.88;18.63;;;19.20;67.90;;;;;;5033543;28;20104;-67
2022/04/16 00:16:17;;;;;;;24.85;19.08;;;19.20;67.90;;;;;;5016613;28;20032;-67
2022/04/16 00:18:46;;;;;;;25.48;19.02;;;19.20;68.00;;;;;;5032544;28;20032;-67
2022/04/16 00:21:12;;;;;;;24.48;17.73;;;19.30;68.00;;;;;;5032058;28;20031;-67
2022/04/16 00:23:40;;;;;;;27.13;18.98;;;19.30;68.10;;;;;;5033249;28;20480;-67
2022/04/16 00:26:07;;;;;;;25.35;18.58;;;19.20;68.10;;;;;;5032231;28;20013;-67
2022/04/16 00:28:33;;;;;;;25.75;18.80;;;19.20;68.10;;;;;;5033161;28;20036;-67
2022/04/16 00:30:59;;;;;;;22.75;17.05;;;19.20;68.10;;;;;;5033263;28;20396;-68
2022/04/16 00:33:25;;;;;;;24.10;17.70;;;19.20;68.10;;;;;;5033218;28;20021;-67
2022/04/16 00:35:51;;;;;;;24.75;18.27;;;19.20;68.10;;;;;;5032589;28;20021;-67
2022/04/16 00:38:17;;;;;;;21.35;16.83;;;19.30;68.20;;;;;;5048287;28;20423;-67
2022/04/16 00:40:43;;;;;;;23.88;17.73;;;19.30;68.20;;;;;;5032899;28;20022;-67
2022/04/16 00:43:19;;;;;;;23.80;16.90;;;19.30;68.30;;;;;;5031696;28;20041;-67
2022/04/16 00:45:45;;;;;;;24.00;17.23;;;19.30;68.20;;;;;;5032967;28;20107;-67
2022/04/16 00:48:11;;;;;;;22.27;17.02;;;19.20;68.20;;;;;;5031948;28;20495;-67
2022/04/16 00:50:36;;;;;;;22.83;18.08;;;19.20;68.20;;;;;;5032797;28;20021;-67
2022/04/16 00:53:02;;;;;;;24.85;17.60;;;19.20;68.30;;;;;;5032896;28;20029;-67
2022/04/16 00:55:28;;;;;;;21.98;16.38;;;19.30;68.30;;;;;;5031492;28;20033;-67
2022/04/16 00:57:54;;;;;;;21.02;17.33;;;19.20;68.30;;;;;;5032716;28;20036;-67
2022/04/16 01:00:20;;;;;;;22.00;16.95;;;19.20;68.40;;;;;;5032643;28;20057;-67
2022/04/16 01:02:46;;;;;;;21.38;16.15;;;19.20;68.40;;;;;;5032757;28;20447;-67
2022/04/16 01:05:12;;;;;;;20.00;16.25;;;19.20;68.40;;;;;;5032806;28;20021;-67
2022/04/16 01:07:54;;;;;;;20.45;16.48;;;19.20;68.50;;;;;;5032503;28;20107;-67
2022/04/16 01:10:21;;;;;;;24.23;16.95;;;19.20;68.40;;;;;;5031136;28;20021;-67
2022/04/16 01:12:46;;;;;;;21.88;16.83;;;19.20;68.50;;;;;;5031198;28;20040;-67
2022/04/16 01:15:13;;;;;;;20.38;16.50;;;19.20;68.50;;;;;;5032594;28;20021;-67
2022/04/16 01:17:40;;;;;;;23.45;16.98;;;19.20;68.50;;;;;;5030857;28;20037;-67
2022/04/16 01:20:06;;;;;;;20.83;16.58;;;19.20;68.50;;;;;;5031432;28;20074;-67
2022/04/16 01:22:32;;;;;;;20.80;14.90;;;19.20;68.60;;;;;;5031095;28;20075;-67
2022/04/16 01:24:59;;;;;;;21.92;15.82;;;19.20;68.50;;;;;;5031080;28;20105;-67
2022/04/16 01:27:25;;;;;;;18.90;15.20;;;19.20;68.50;;;;;;5032326;28;20104;-67
2022/04/16 01:29:53;;;;;;;19.10;15.38;;;19.20;68.50;;;;;;5032427;28;20513;-67
2022/04/16 01:32:19;;;;;;;18.23;14.77;;;19.20;68.50;;;;;;5031167;28;20036;-67
2022/04/16 01:34:45;;;;;;;17.77;15.50;;;19.20;68.50;;;;;;5031049;28;20115;-67
2022/04/16 01:37:12;;;;;;;22.83;15.85;;;19.20;68.50;;;;;;5032060;28;20096;-67
2022/04/16 01:39:38;;;;;;;18.13;14.70;;;19.20;68.50;;;;;;5031923;28;20028;-67
2022/04/16 01:42:04;;;;;;;19.52;15.68;;;19.20;68.50;;;;;;5031180;28;20100;-67
2022/04/16 01:44:30;;;;;;;19.52;14.90;;;19.20;68.50;;;;;;5032169;28;20391;-67
2022/04/16 01:46:56;;;;;;;18.63;15.00;;;19.20;68.50;;;;;;5032188;28;20053;-67
2022/04/16 01:49:22;;;;;;;20.95;15.13;;;19.20;68.50;;;;;;5032364;28;20492;-67
2022/04/16 01:51:48;;;;;;;19.63;14.90;;;19.20;68.50;;;;;;5030909;28;20060;-67
2022/04/16 01:54:14;;;;;;;22.85;15.10;;;19.20;68.50;;;;;;5030668;28;20025;-67
2022/04/16 01:56:40;;;;;;;19.10;14.45;;;19.20;68.50;;;;;;5031984;28;20056;-67
2022/04/16 01:59:08;;;;;;;19.83;14.75;;;19.20;68.50;;;;;;5032192;28;20060;-67
2022/04/16 02:01:34;;;;;;;18.85;14.27;;;19.20;68.50;;;;;;5031978;28;20017;-67
2022/04/16 02:03:59;;;;;;;17.83;14.05;;;19.20;68.50;;;;;;5030847;28;20018;-67
2022/04/16 02:06:25;;;;;;;17.83;14.45;;;19.20;68.60;;;;;;5031907;28;20551;-67
2022/04/16 02:08:51;;;;;;;18.33;13.85;;;19.20;68.60;;;;;;5031866;28;20557;-67
2022/04/16 02:11:17;;;;;;;17.55;13.57;;;19.20;68.50;;;;;;5032024;28;20029;-67
2022/04/16 02:13:44;;;;;;;19.55;14.60;;;19.20;68.50;;;;;;5030569;28;20446;-67
2022/04/16 02:16:09;;;;;;;18.17;14.02;;;19.20;68.60;;;;;;5031989;28;20025;-67
2022/04/16 02:18:36;;;;;;;18.33;14.73;;;19.20;68.60;;;;;;5030479;28;20032;-67
2022/04/16 02:21:02;;;;;;;20.35;14.75;;;19.20;68.50;;;;;;5031854;28;20080;-67
2022/04/16 02:23:28;;;;;;;18.20;13.75;;;19.20;68.60;;;;;;5031548;28;20018;-67
2022/04/16 02:25:54;;;;;;;15.75;13.32;;;19.20;68.60;;;;;;5035533;28;20051;-67
2022/04/16 02:28:22;;;;;;;16.77;13.63;;;19.20;68.60;;;;;;5035614;28;20033;-67
2022/04/16 02:30:49;;;;;;;18.27;13.18;;;19.10;68.60;;;;;;5035462;28;20511;-67
2022/04/16 02:33:15;;;;;;;16.77;13.48;;;19.10;68.60;;;;;;5034373;28;20071;-67
2022/04/16 02:35:41;;;;;;;16.52;12.88;;;19.10;68.60;;;;;;5035150;28;20037;-67
2022/04/16 02:38:07;;;;;;;16.92;13.00;;;19.20;68.70;;;;;;5033939;28;20038;-67
2022/04/16 02:40:33;;;;;;;16.05;13.23;;;19.10;68.60;;;;;;5035354;28;20104;-67
2022/04/16 02:42:58;;;;;;;16.13;12.93;;;19.10;68.60;;;;;;5034263;28;20174;-67
2022/04/16 02:48:08;;;;;;;15.95;12.18;;;19.10;68.60;;;;;;5035333;28;20036;-67
2022/04/16 02:50:34;;;;;;;15.13;12.05;;;19.10;68.70;;;;;;5034889;28;20025;-67
2022/04/16 02:53:00;;;;;;;16.55;12.25;;;19.10;68.70;;;;;;5033981;28;20480;-67
2022/04/16 02:55:26;;;;;;;17.25;12.32;;;19.10;68.70;;;;;;5039564;28;20069;-67
2022/04/16 02:57:52;;;;;;;15.30;11.95;;;19.10;68.60;;;;;;5047064;28;20702;-67
2022/04/16 03:00:20;;;;;;;17.45;12.27;;;19.10;68.70;;;;;;5047159;28;20457;-67
2022/04/16 03:02:46;;;;;;;18.10;12.40;;;19.10;68.60;;;;;;5015141;28;20022;-67
2022/04/16 03:05:11;;;;;;;14.63;11.48;;;19.10;68.70;;;;;;5046598;28;20097;-67
2022/04/16 03:07:37;;;;;;;14.40;12.05;;;19.10;68.70;;;;;;5046955;28;20172;-67
2022/04/16 03:10:04;;;;;;;15.82;11.95;;;19.10;68.60;;;;;;5047150;28;20034;-67
2022/04/16 03:12:51;;;;;;;14.05;11.63;;;19.10;68.70;;;;;;5046641;28;20018;-67
2022/04/16 03:18:01;;;;;;;14.32;11.40;;;19.10;68.70;;;;;;5042064;28;20040;-67
2022/04/16 03:20:29;;;;;;;13.98;11.88;;;19.10;68.70;;;;;;5046408;28;20037;-66
2022/04/16 03:22:58;;;;;;;13.00;11.13;;;19.10;68.80;;;;;;5045889;28;20079;-66
2022/04/16 03:25:24;;;;;;;14.73;11.60;;;19.10;68.80;;;;;;5046851;28;20018;-66
2022/04/16 03:27:50;;;;;;;14.68;11.73;;;19.10;68.80;;;;;;5014687;28;20149;-66
2022/04/16 03:30:16;;;;;;;13.80;10.90;;;19.10;68.70;;;;;;5046314;28;20101;-66
2022/04/16 03:32:42;;;;;;;14.50;11.75;;;19.10;68.70;;;;;;5014663;28;20037;-66
2022/04/16 03:35:08;;;;;;;13.90;10.98;;;19.10;68.80;;;;;;5022563;28;20047;-66
2022/04/16 03:37:34;;;;;;;15.20;10.88;;;19.10;68.70;;;;;;5049643;28;20052;-66
2022/04/16 03:40:00;;;;;;;13.68;10.75;;;19.10;68.70;;;;;;5050088;28;20127;-66
2022/04/16 03:42:25;;;;;;;14.25;10.75;;;19.10;68.70;;;;;;5034263;28;20224;-66
2022/04/16 03:44:51;;;;;;;14.32;10.70;;;19.10;68.80;;;;;;5034029;28;20032;-66
2022/04/16 03:47:17;;;;;;;15.00;11.27;;;19.10;68.80;;;;;;5033025;28;20095;-66
2022/04/16 03:49:43;;;;;;;13.57;10.77;;;19.00;68.80;;;;;;5033795;28;20629;-66
2022/04/16 03:52:09;;;;;;;12.98;10.45;;;19.10;68.90;;;;;;5034078;28;20029;-66
2022/04/16 04:00:05;;;;;;;14.10;10.45;;;19.00;68.80;;;;;;5033818;28;20037;-66
2022/04/16 04:02:33;;;;;;;17.40;10.65;;;19.00;68.90;;;;;;5033819;28;20018;-66
2022/04/16 04:04:58;;;;;;;13.20;10.25;;;19.10;68.90;;;;;;5016228;28;20022;-66
2022/04/16 04:07:25;;;;;;;12.63;10.88;;;19.00;68.80;;;;;;5032675;28;20072;-66
2022/04/16 04:09:51;;;;;;;13.98;10.48;;;19.00;68.90;;;;;;5033546;28;20095;-66
2022/04/16 04:12:17;;;;;;;12.73;10.48;;;19.00;68.80;;;;;;5032456;28;20422;-66
2022/04/16 04:14:46;;;;;;;14.00;10.27;;;19.00;68.80;;;;;;5032366;28;20048;-66
2022/04/16 04:17:12;;;;;;;13.43;10.48;;;19.00;68.80;;;;;;5032542;28;20028;-67
2022/04/16 04:19:39;;;;;;;12.70;10.05;;;19.00;68.80;;;;;;5032089;28;20014;-67
2022/04/16 04:22:06;;;;;;;12.40;9.73;;;19.00;68.90;;;;;;5032460;28;20483;-66
2022/04/16 04:24:32;;;;;;;11.75;9.27;;;19.00;68.90;;;;;;5032158;28;20128;-67
2022/04/16 04:26:58;;;;;;;13.20;10.13;;;19.00;68.80;;;;;;5015556;28;20124;-66
2022/04/16 04:29:24;;;;;;;13.93;9.73;;;19.00;68.90;;;;;;5033491;28;20028;-67
2022/04/16 04:31:50;;;;;;;11.85;9.80;;;19.00;68.80;;;;;;5015394;28;20104;-66
2022/04/16 04:34:16;;;;;;;10.70;9.40;;;19.00;68.90;;;;;;5033386;28;20101;-66
2022/04/16 04:36:41;;;;;;;11.57;9.15;;;19.00;68.90;;;;;;5015299;28;20029;-67
2022/04/16 04:39:07;;;;;;;11.55;9.63;;;19.00;68.90;;;;;;5033105;28;20048;-67
2022/04/16 04:41:33;;;;;;;11.55;8.88;;;19.00;68.80;;;;;;5033109;28;20026;-66
2022/04/16 04:43:58;;;;;;;11.65;9.40;;;19.00;68.90;;;;;;5031871;28;20037;-66
2022/04/16 04:46:24;;;;;;;10.60;9.50;;;19.00;68.90;;;;;;5032326;28;20144;-66
2022/04/16 04:48:49;;;;;;;10.88;9.10;;;19.00;68.90;;;;;;5032790;28;20025;-67
2022/04/16 04:51:15;;;;;;;10.90;8.80;;;19.00;69.00;;;;;;5032941;28;20075;-67
2022/04/16 04:53:41;;;;;;;13.10;8.73;;;19.00;69.00;;;;;;5032795;28;20039;-67
2022/04/16 04:56:06;;;;;;;12.35;9.32;;;19.00;69.00;;;;;;5032833;28;20071;-67
2022/04/16 04:58:32;;;;;;;11.07;8.70;;;19.00;69.00;;;;;;5032876;28;20395;-67
2022/04/16 05:00:57;;;;;;;9.50;8.40;;;19.00;69.00;;;;;;5032337;28;20030;-66
2022/04/16 05:03:23;;;;;;;11.82;8.98;;;19.00;69.00;;;;;;5032908;28;20026;-67
2022/04/16 05:05:49;;;;;;;11.70;8.60;;;19.00;69.00;;;;;;5032590;28;20618;-67
2022/04/16 05:08:15;;;;;;;11.35;8.93;;;19.00;69.00;;;;;;5032797;28;20033;-67
2022/04/16 05:10:40;;;;;;;9.77;8.40;;;19.00;69.00;;;;;;5032585;28;20021;-66
2022/04/16 05:13:06;;;;;;;10.13;8.57;;;19.00;69.00;;;;;;5031453;28;20029;-67
2022/04/16 05:15:32;;;;;;;9.30;8.25;;;19.00;69.00;;;;;;5032220;28;20029;-66
2022/04/16 05:17:58;;;;;;;9.30;8.38;;;19.00;69.00;;;;;;5030478;28;20480;-66
2022/04/16 05:20:24;;;;;;;10.02;8.60;;;19.00;69.00;;;;;;5030975;28;20019;-67
2022/04/16 05:22:50;;;;;;;10.15;7.80;;;19.00;69.00;;;;;;5032341;28;20466;-67
2022/04/16 05:25:16;;;;;;;12.90;9.05;;;19.00;69.10;;;;;;5031479;28;20026;-67
2022/04/16 05:27:41;;;;;;;10.18;7.97;;;19.00;69.10;;;;;;5032923;28;20029;-66
2022/04/16 05:30:13;;;;;;;9.68;7.50;;;19.00;69.10;;;;;;5029219;28;20096;-67
2022/04/16 05:32:42;;;;;;;9.65;7.63;;;19.00;69.20;;;;;;5032201;28;20507;-66
2022/04/16 05:35:09;;;;;;;9.80;8.05;;;19.00;69.10;;;;;;5031045;28;20032;-66
2022/04/16 05:37:35;;;;;;;9.25;7.93;;;19.00;69.20;;;;;;5031791;28;20099;-66
2022/04/16 05:40:02;;;;;;;9.02;7.90;;;19.00;69.10;;;;;;5031013;28;20014;-67
2022/04/16 05:42:27;;;;;;;9.93;8.30;;;19.00;69.10;;;;;;5032322;28;20033;-67
2022/04/16 05:44:58;;;;;;;10.80;8.13;;;19.00;69.10;;;;;;5032086;28;20025;-66
2022/04/16 05:47:23;;;;;;;10.45;7.45;;;19.00;69.10;;;;;;5031046;28;20025;-66
2022/04/16 05:49:49;;;;;;;11.32;7.25;;;18.90;69.10;;;;;;5032218;28;20463;-66
2022/04/16 05:52:15;;;;;;;8.95;6.95;;;19.00;69.20;;;;;;5032328;28;20044;-67
2022/04/16 05:54:40;;;;;;;9.80;7.78;;;19.00;69.20;;;;;;5031005;28;20025;-66
2022/04/16 05:57:06;;;;;;;8.68;7.47;;;19.00;69.20;;;;;;5030672;28;20108;-66
2022/04/16 05:59:32;;;;;;;8.15;6.82;;;18.90;69.10;;;;;;5033730;28;20075;-67
2022/04/16 06:01:57;;;;;;;9.90;7.43;;;18.90;69.10;;;;;;5036029;28;20029;-66
2022/04/16 06:04:23;;;;;;;9.43;7.88;;;19.00;69.20;;;;;;5036015;28;20022;-67
2022/04/16 06:06:49;;;;;;;11.38;7.00;;;18.90;69.20;;;;;;5035939;28;20033;-67
2022/04/16 06:09:14;;;;;;;7.57;6.78;;;19.00;69.20;;;;;;5035866;28;20018;-67
2022/04/16 06:11:42;;;;;;;12.00;7.65;;;19.00;69.30;;;;;;5035811;28;20025;-67
2022/04/16 06:14:08;;;;;;;9.13;7.13;;;19.00;69.20;;;;;;5035682;28;20492;-67
2022/04/16 06:16:33;;;;;;;11.75;7.13;;;18.90;69.20;;;;;;5035874;28;20045;-67
2022/04/16 06:18:59;;;;;;;10.15;6.80;;;19.00;69.20;;;;;;5035667;28;20507;-67
2022/04/16 06:21:25;;;;;;;11.02;7.22;;;19.00;69.20;;;;;;5035609;28;20018;-67
2022/04/16 06:23:51;;;;;;;9.40;7.13;;;18.90;69.20;;;;;;5035533;28;20029;-67
2022/04/16 06:26:17;;;;;;;8.80;7.00;;;18.90;69.20;;;;;;5035502;28;20021;-67
2022/04/16 06:28:43;;;;;;;8.95;7.10;;;18.90;69.20;;;;;;5035407;28;20025;-66
2022/04/16 06:31:08;;;;;;;9.70;7.15;;;18.90;69.30;;;;;;5035487;28;20091;-66
2022/04/16 06:33:34;;;;;;;7.30;6.22;;;18.90;69.20;;;;;;5034463;28;20018;-66
2022/04/16 06:36:00;;;;;;;8.48;6.50;;;18.90;69.30;;;;;;5035345;28;20064;-66
2022/04/16 06:38:29;;;;;;;11.02;6.75;;;18.90;69.30;;;;;;5035300;28;20072;-66
2022/04/16 06:40:55;;;;;;;8.90;7.00;;;18.90;69.30;;;;;;5035247;28;20037;-67
2022/04/16 06:43:20;;;;;;;9.02;6.75;;;18.90;69.30;;;;;;5035229;28;20029;-66
2022/04/16 06:45:46;;;;;;;8.98;6.78;;;18.90;69.30;;;;;;5035264;28;20034;-67
2022/04/16 06:48:12;;;;;;;9.55;6.82;;;18.90;69.30;;;;;;5035126;28;20037;-66
2022/04/16 06:50:37;;;;;;;8.25;6.15;;;18.90;69.30;;;;;;5035331;28;20026;-67
2022/04/16 06:53:03;;;;;;;7.32;6.50;;;18.90;69.30;;;;;;5034027;28;20511;-66
2022/04/16 06:55:29;;;;;;;8.43;6.63;;;18.90;69.30;;;;;;5034952;28;20022;-67
2022/04/16 06:57:54;;;;;;;8.18;6.18;;;18.90;69.30;;;;;;5034860;28;20025;-66
2022/04/16 07:00:20;;;;;;;9.48;6.00;;;18.90;69.30;;;;;;5035063;28;20124;-67
2022/04/16 07:02:46;;;;;;;8.43;6.45;;;18.90;69.30;;;;;;5033829;28;20075;-67
2022/04/16 07:05:11;;;;;;;7.32;6.20;;;18.90;69.30;;;;;;5035037;28;20026;-66
2022/04/16 07:07:37;;;;;;;8.85;6.07;;;18.90;69.30;;;;;;5034890;28;20506;-66
2022/04/16 07:10:03;;;;;;;7.10;5.97;;;18.90;69.40;;;;;;5033065;28;20407;-66
2022/04/16 07:12:28;;;;;;;12.48;6.18;;;18.90;69.30;;;;;;5034685;28;20025;-66
2022/04/16 07:14:55;;;;;;;8.65;6.30;;;18.90;69.30;;;;;;5034677;28;20036;-66
2022/04/16 07:17:20;;;;;;;7.60;6.10;;;18.90;70.30;;;;;;5034762;28;20032;-66
2022/04/16 07:19:46;;;;;;;6.85;5.97;;;18.90;69.40;;;;;;5034660;28;20029;-66
2022/04/16 07:22:11;;;;;;;6.93;5.63;;;18.90;69.40;;;;;;5033313;28;20431;-66
2022/04/16 07:24:38;;;;;;;7.90;6.13;;;18.90;69.30;;;;;;5034674;28;20411;-67
2022/04/16 07:27:05;;;;;;;6.82;5.40;;;18.90;69.30;;;;;;5033042;28;20046;-67
2022/04/16 07:29:30;;;;;;;7.10;5.38;;;18.80;69.30;;;;;;5034552;28;20017;-66
2022/04/16 07:31:56;;;;;;;6.00;5.40;;;18.80;69.30;;;;;;5033207;28;20101;-67
2022/04/16 07:34:22;;;;;;;6.78;6.07;;;18.80;69.30;;;;;;5033067;28;20083;-67
2022/04/16 07:36:48;;;;;;;7.43;5.68;;;18.80;69.30;;;;;;5034449;28;20018;-67
2022/04/16 07:39:13;;;;;;;7.90;5.97;;;18.90;69.30;;;;;;5032990;28;20033;-67
2022/04/16 07:41:39;;;;;;;6.32;5.65;;;18.90;69.30;;;;;;5034194;28;20087;-67
2022/04/16 07:44:05;;;;;;;6.63;5.40;;;18.90;69.30;;;;;;5033064;28;20025;-67
2022/04/16 07:46:31;;;;;;;7.55;5.80;;;18.80;69.30;;;;;;5032955;28;20024;-67
2022/04/16 07:48:57;;;;;;;5.78;4.82;;;18.80;69.30;;;;;;5032884;28;20049;-67
2022/04/16 07:51:23;;;;;;;6.20;5.57;;;18.80;69.30;;;;;;5033011;28;20021;-67
2022/04/16 07:53:49;;;;;;;7.10;5.80;;;18.90;69.40;;;;;;5033941;28;20084;-67
2022/04/16 07:56:15;;;;;;;7.32;5.85;;;18.80;69.30;;;;;;5033599;28;20511;-67
2022/04/16 07:58:40;;;;;;;6.82;5.90;;;18.90;69.30;;;;;;5032847;28;20034;-66
2022/04/16 08:01:06;;;;;;;7.63;4.47;;;18.90;69.50;;;;;;5032252;28;20026;-67
2022/04/16 08:03:32;;;;;;;2.25;2.15;;;18.80;69.20;;;;;;5028487;28;20128;-66
2022/04/16 08:05:58;;;;;;;2.17;1.90;;;18.80;68.70;;;;;;5032364;28;20096;-66
2022/04/16 08:08:24;;;;;;;1.77;1.65;;;18.70;68.50;;;;;;5033902;28;20034;-66
2022/04/16 08:10:53;;;;;;;2.15;1.92;;;18.70;68.50;;;;;;5033885;28;20063;-65
2022/04/16 08:13:22;;;;;;;2.90;2.10;;;18.60;68.40;;;;;;5032581;28;20038;-66
2022/04/16 08:15:48;;;;;;;2.40;2.20;;;18.60;68.50;;;;;;5014579;28;20105;-65
2022/04/16 08:18:13;;;;;;;2.40;2.20;;;18.60;68.40;;;;;;5019689;28;20108;-65
2022/04/16 08:20:39;;;;;;;3.75;2.72;;;18.60;68.30;;;;;;5016537;28;20068;-66
2022/04/16 08:23:06;;;;;;;3.75;2.63;;;18.50;69.20;;;;;;5027068;28;20489;-66
2022/04/16 08:28:01;;;;;;;2.42;2.22;;;18.60;69.20;;;;;;5032572;28;20029;-66
2022/04/16 08:30:27;;;;;;;4.80;2.30;;;18.50;68.10;;;;;;5034028;28;20084;-66
2022/04/16 08:32:52;;;;;;;3.08;2.15;;;18.50;68.00;;;;;;5033516;28;20496;-66
2022/04/16 08:35:18;;;;;;;4.85;2.63;;;18.50;68.00;;;;;;5032122;28;20032;-66
2022/04/16 08:37:45;;;;;;;2.85;2.35;;;18.50;67.90;;;;;;5031916;28;20451;-66
2022/04/16 08:40:12;;;;;;;2.50;2.30;;;18.50;67.80;;;;;;5033345;28;20037;-65
2022/04/16 08:42:38;;;;;;;2.15;1.83;;;18.50;67.70;;;;;;5033571;28;20472;-66
2022/04/16 08:45:05;;;;;;;2.05;1.80;;;18.50;67.70;;;;;;5032200;28;20032;-65
2022/04/16 08:47:31;;;;;;;2.88;2.63;;;18.50;67.60;;;;;;5032143;28;20033;-67
2022/04/16 08:49:58;;;;;;;4.15;2.72;;;18.50;67.70;;;;;;5032204;28;20036;-66
2022/04/16 08:52:26;;;;;;;3.63;3.33;;;18.50;67.40;;;;;;5031809;28;20029;-67
2022/04/16 08:54:53;;;;;;;3.92;3.55;;;18.50;67.40;;;;;;5032818;28;20021;-66
2022/04/16 08:57:19;;;;;;;3.65;3.38;;;18.40;67.40;;;;;;5031845;28;20032;-66
2022/04/16 08:59:50;;;;;;;4.25;3.85;;;18.40;67.30;;;;;;5033207;28;20021;-67
2022/04/16 09:02:16;;;;;;;4.22;3.80;;;18.40;67.20;;;;;;5015804;28;20030;-66
2022/04/16 09:04:42;;;;;;;4.45;3.92;;;18.40;67.30;;;;;;5031963;28;20078;-66
2022/04/16 09:07:07;;;;;;;3.53;3.22;;;18.40;67.30;;;;;;5031728;28;20470;-67
2022/04/16 09:09:34;;;;;;;5.28;3.75;;;18.30;67.10;;;;;;5032767;28;20018;-66
2022/04/16 09:12:00;;;;;;;5.03;4.00;;;18.40;67.10;;;;;;5031777;28;20030;-66
2022/04/16 09:14:43;;;;;;;6.35;4.47;;;18.40;67.10;;;;;;5032762;28;20055;-66
2022/04/16 09:17:08;;;;;;;;;;;18.40;66.80;;;;;;5033086;28;20028;-66
2022/04/16 09:19:34;;;;;;;3.97;3.67;;;18.30;66.60;;;;;;5031613;28;19909;-66
2022/04/16 09:22:00;;;;;;;4.05;3.22;;;18.30;67.30;;;;;;5031204;28;20029;-67
2022/04/16 09:24:25;;;;;;;4.15;3.75;;;18.30;67.20;;;;;;5031568;28;20036;-67
2022/04/16 09:26:51;;;;;;;3.50;3.15;;;18.30;67.10;;;;;;5032408;28;20032;-66
2022/04/16 09:29:18;;;;;;;5.30;3.72;;;18.30;67.00;;;;;;5032858;28;20025;-67
2022/04/16 09:31:49;;;;;;;3.95;3.65;;;18.30;67.00;;;;;;5032693;28;20035;-67
2022/04/16 09:34:17;;;;;;;5.15;3.35;;;18.30;66.80;;;;;;5029708;28;20022;-67
2022/04/16 09:36:44;;;;;;;4.25;3.25;;;18.30;66.80;;;;;;5011488;28;20022;-67
2022/04/16 09:39:10;;;;;;;4.00;3.35;;;18.30;66.80;;;;;;5012688;28;20026;-67
2022/04/16 09:41:38;;;;;;;4.28;3.08;;;18.30;66.80;;;;;;5011676;28;20042;-66
2022/04/16 09:44:04;;;;;;;3.78;2.92;;;18.40;66.80;;;;;;5011882;28;20026;-67
2022/04/16 09:46:30;;;;;;;5.13;3.00;;;18.30;66.70;;;;;;5011142;28;20377;-66
2022/04/16 09:49:03;;;;;;;3.47;3.15;;;18.30;66.70;;;;;;5012899;28;20057;-66
2022/04/16 09:51:31;;;;;;;;;;;18.40;66.70;;;;;;5011776;28;20029;-67
2022/04/16 09:53:56;;;;;;;3.42;3.13;;;18.30;66.40;;;;;;5012856;28;19909;-67
2022/04/16 09:56:22;;;;;;;3.50;3.03;;;18.30;67.00;;;;;;5029745;28;20407;-67
2022/04/16 09:58:54;;;;;;;4.18;3.28;;;18.30;66.90;;;;;;5014811;28;20021;-67
2022/04/16 10:01:21;;;;;;;3.13;2.73;;;18.30;66.80;;;;;;5031292;28;20471;-67
2022/04/16 10:03:47;;;;;;;4.00;3.22;;;18.30;66.80;;;;;;5031381;28;20061;-67
2022/04/16 10:06:13;;;;;;;3.47;3.10;;;18.30;66.80;;;;;;5032206;28;20103;-67
2022/04/16 10:08:39;;;;;;;2.78;2.58;;;18.30;66.70;;;;;;5030936;28;20496;-67
2022/04/16 10:11:05;;;;;;;4.63;2.80;;;18.30;66.70;;;;;;5031307;28;20017;-67
2022/04/16 10:13:39;;;;;;;4.57;2.85;;;18.40;66.70;;;;;;5031151;28;20476;-67
2022/04/16 10:16:10;;;;;;;3.80;2.90;;;18.40;66.60;;;;;;5031481;28;20045;-67
2022/04/16 10:18:36;;;;;;;3.80;2.72;;;18.40;66.60;;;;;;5031029;28;20108;-67
2022/04/16 10:21:02;;;;;;;2.83;2.53;;;18.40;66.60;;;;;;5031030;28;20101;-67
2022/04/16 10:23:31;;;;;;;3.42;2.67;;;18.40;66.50;;;;;;5030872;28;20032;-67
2022/04/16 10:26:16;;;;;;;2.95;2.42;;;18.40;66.50;;;;;;5026205;28;20091;-66
2022/04/16 10:28:52;;;;;;;2.53;2.33;;;18.40;66.10;;;;;;5022657;28;20021;-66
2022/04/16 10:31:33;;;;;;;2.72;2.20;;;18.40;66.30;;;;;;5030547;28;20022;-66
2022/04/16 10:34:00;;;;;;;3.30;2.58;;;18.40;66.20;;;;;;5031733;28;20033;-66
2022/04/16 10:36:32;;;;;;;3.78;2.63;;;18.40;66.40;;;;;;5030356;28;20034;-66
2022/04/16 10:38:58;;;;;;;3.47;2.65;;;18.40;66.30;;;;;;5030722;28;20048;-66
2022/04/16 10:41:25;;;;;;;2.72;2.50;;;18.40;66.30;;;;;;5014314;28;20021;-66
2022/04/16 10:44:01;;;;;;;3.35;2.72;;;18.40;66.30;;;;;;5030655;28;20558;-66
2022/04/16 10:46:44;;;;;;;2.58;2.20;;;18.40;66.20;;;;;;5017195;28;20412;-66
2022/04/16 10:49:11;;;;;;;3.78;2.67;;;18.40;65.80;;;;;;5034152;28;20056;-66
2022/04/16 10:51:36;;;;;;;2.65;2.35;;;18.40;66.10;;;;;;5035244;28;20021;-66
2022/04/16 10:54:12;;;;;;;2.20;2.00;;;18.40;66.10;;;;;;5035494;28;20101;-66
2022/04/16 10:56:41;;;;;;;2.30;2.10;;;18.50;65.80;;;;;;5014188;28;20096;-67
2022/04/16 10:59:11;;;;;;;3.53;1.90;;;18.40;65.90;;;;;;5014598;28;20026;-66
2022/04/16 11:01:37;;;;;;;2.58;2.00;;;18.40;65.90;;;;;;5015952;28;20495;-67
2022/04/16 11:04:14;;;;;;;2.10;2.00;;;18.50;65.80;;;;;;5015457;28;20029;-67
2022/04/16 11:06:51;;;;;;;1.90;1.70;;;18.50;65.40;;;;;;5015770;28;20065;-67
2022/04/16 11:09:20;;;;;;;3.50;1.90;;;18.50;65.70;;;;;;5014594;28;20022;-67
2022/04/16 11:11:50;;;;;;;2.45;1.80;;;18.50;65.60;;;;;;5014695;28;20026;-66
2022/04/16 11:14:16;;;;;;;2.60;1.63;;;18.50;65.50;;;;;;5014209;28;20018;-67
2022/04/16 11:16:45;;;;;;;1.63;1.52;;;18.50;65.40;;;;;;5014414;28;20052;-66
2022/04/16 11:19:18;;;;;;;2.83;1.40;;;18.50;65.30;;;;;;5013994;28;20026;-67
2022/04/16 11:21:44;;;;;;;2.40;1.42;;;18.50;65.30;;;;;;5028861;28;20552;-67
2022/04/16 11:24:10;;;;;;;1.40;1.30;;;18.50;65.20;;;;;;5034007;28;20108;-67
2022/04/16 11:34:51;;;;;;;1.77;1.40;;;18.50;64.80;;;;;;5029152;28;20121;-68
2022/04/16 11:37:17;;;;;;;3.42;1.77;;;18.50;64.70;;;;;;5013995;28;20053;-68
2022/04/16 11:39:45;;;;;;;3.40;1.50;;;18.50;64.70;;;;;;5014827;28;20014;-68
2022/04/16 11:42:11;;;;;;;2.00;1.40;;;18.50;64.60;;;;;;4998031;28;20029;-68
2022/04/16 11:44:41;;;;;;;2.72;1.50;;;18.50;64.40;;;;;;5013579;28;20022;-68
2022/04/16 11:47:20;;;;;;;1.90;1.35;;;18.50;64.20;;;;;;5021007;28;20022;-68
2022/04/16 11:49:48;;;;;;;1.27;1.20;;;18.60;63.90;;;;;;5032401;28;20009;-67
2022/04/16 11:52:14;;;;;;;1.40;1.30;;;18.50;64.10;;;;;;5032170;28;20068;-68
2022/04/16 11:54:40;;;;;;;1.15;1.00;;;18.50;64.00;;;;;;5036684;28;20031;-67
2022/04/16 11:57:07;;;;;;;2.28;1.25;;;18.60;63.90;;;;;;5035302;28;20021;-67
2022/04/16 11:59:34;;;;;;;1.00;1.00;;;18.60;63.80;;;;;;5053567;28;20024;-67
2022/04/16 12:02:07;;;;;;;1.70;1.20;;;18.60;63.60;;;;;;5052562;28;20081;-68
2022/04/16 12:04:43;;;;;;;2.30;1.02;;;18.60;63.30;;;;;;5052675;28;20009;-68
2022/04/16 12:07:16;;;;;;;1.58;1.27;;;18.60;63.30;;;;;;5037402;28;20030;-68
2022/04/16 12:09:48;;;;;;;1.27;1.17;;;18.60;63.30;;;;;;5052987;28;20070;-68
2022/04/16 12:12:15;;;;;;;;;;;18.70;63.10;;;;;;5053424;28;20546;-67
2022/04/16 12:14:51;;;;;;;2.33;1.33;;;18.60;62.20;;;;;;5054015;28;19978;-68
2022/04/16 12:17:24;;;;;;;1.88;1.52;;;18.60;62.90;;;;;;5052695;28;20017;-67
2022/04/16 12:19:57;;;;;;;1.90;1.45;;;18.70;63.10;;;;;;5052707;28;20029;-68
2022/04/16 12:22:23;;;;;;;2.40;1.40;;;18.70;62.90;;;;;;5014126;28;20018;-67
2022/04/16 12:24:48;;;;;;;1.50;1.40;;;18.70;62.90;;;;;;5014336;28;20531;-67
2022/04/16 12:27:34;;;;;;;1.60;1.50;;;18.70;62.70;;;;;;5012852;28;20022;-67
2022/04/16 12:30:00;;;;;;;1.42;1.27;;;18.80;61.70;;;;;;5014282;28;20041;-67
2022/04/16 12:32:28;;;;;;;2.50;1.42;;;18.80;62.50;;;;;;5028890;28;20057;-67
2022/04/16 12:34:54;;;;;;;1.52;1.20;;;18.80;62.50;;;;;;5027819;28;20104;-67
2022/04/16 12:37:20;;;;;;;1.73;1.45;;;18.80;62.20;;;;;;5013731;28;20536;-67
2022/04/16 12:39:46;;;;;;;2.28;1.58;;;18.80;62.10;;;;;;5012746;28;20045;-67
2022/04/16 12:42:12;;;;;;;2.28;1.58;;;18.80;62.00;;;;;;5013865;28;20349;-67
2022/04/16 12:44:37;;;;;;;1.88;1.10;;;18.90;62.00;;;;;;5013651;28;20104;-68
2022/04/16 12:47:03;;;;;;;3.05;1.60;;;18.90;61.90;;;;;;5013567;28;20349;-67
2022/04/16 12:49:29;;;;;;;2.03;1.58;;;19.00;61.80;;;;;;5013704;28;20392;-67
2022/04/16 12:51:54;;;;;;;1.98;1.77;;;19.00;61.70;;;;;;5013819;28;20026;-67
2022/04/16 12:54:20;;;;;;;3.05;2.10;;;19.00;61.70;;;;;;5014463;28;20095;-67
2022/04/16 12:56:47;;;;;;;2.22;1.70;;;19.00;61.60;;;;;;5033365;28;20168;-67
2022/04/16 12:59:15;;;;;;;4.90;2.08;;;19.10;61.60;;;;;;5033082;28;20032;-67
2022/04/16 13:01:41;;;;;;;2.00;1.80;;;19.10;61.40;;;;;;5033126;28;20084;-67